sensor_id;sensor_type;location;lat;lon;timestamp;temperature;humidity
15115;DHT22;7658;51.456;7.622;2023-02-11T00:01:52;5.70;99.90
15115;DHT22;7658;51.456;7.622;2023-02-11T00:04:17;5.70;99.90
15115;DHT22;7658;51.456;7.622;2023-02-11T00:06:43;5.70;99.90
15115;DHT22;7658;51.456;7.622;2023-02-11T00:09:09;5.70;99.90
15115;DHT22;7658;51.456;7.622;2023-02-11T00:11:35;5.70;99.90
15115;DHT22;7658;51.456;7.622;2023-02-11T00:14:04;5.70;99.90
15115;DHT22;7658;51.456;7.622;2023-02-11T00:16:30;5.70;99.90
15115;DHT22;7658;51.456;7.622;2023-02-11T00:18:58;5.70;99.90
15115;DHT22;7658;51.456;7.622;2023-02-11T00:21:25;5.70;99.90
15115;DHT22;7658;51.456;7.622;2023-02-11T00:23:52;5.70;99.90
15115;DHT22;7658;51.456;7.622;2023-02-11T00:26:30;5.70;99.90
15115;DHT22;7658;51.456;7.622;2023-02-11T00:28:57;5.70;99.90
15115;DHT22;7658;51.456;7.622;2023-02-11T00:31:24;5.60;99.90
15115;DHT22;7658;51.456;7.622;2023-02-11T00:33:50;5.60;99.90
15115;DHT22;7658;51.456;7.622;2023-02-11T00:36:22;5.60;99.90
15115;DHT22;7658;51.456;7.622;2023-02-11T00:38:48;5.70;99.90
15115;DHT22;7658;51.456;7.622;2023-02-11T00:41:15;5.70;99.90
15115;DHT22;7658;51.456;7.622;2023-02-11T00:43:41;5.70;99.90
15115;DHT22;7658;51.456;7.622;2023-02-11T00:46:07;5.70;99.90
15115;DHT22;7658;51.456;7.622;2023-02-11T00:48:33;5.70;99.90
15115;DHT22;7658;51.456;7.622;2023-02-11T00:50:59;5.70;99.90
15115;DHT22;7658;51.456;7.622;2023-02-11T00:53:25;5.70;99.90
15115;DHT22;7658;51.456;7.622;2023-02-11T00:55:51;5.70;99.90
15115;DHT22;7658;51.456;7.622;2023-02-11T00:58:17;5.70;99.90
15115;DHT22;7658;51.456;7.622;2023-02-11T01:00:43;5.70;99.90
15115;DHT22;7658;51.456;7.622;2023-02-11T01:03:09;5.70;99.90
15115;DHT22;7658;51.456;7.622;2023-02-11T01:05:34;5.70;99.90
15115;DHT22;7658;51.456;7.622;2023-02-11T01:08:00;5.70;99.90
15115;DHT22;7658;51.456;7.622;2023-02-11T01:10:26;5.70;99.90
15115;DHT22;7658;51.456;7.622;2023-02-11T01:12:53;5.60;99.90
15115;DHT22;7658;51.456;7.622;2023-02-11T01:15:20;5.60;99.90
15115;DHT22;7658;51.456;7.622;2023-02-11T01:17:46;5.60;99.90
15115;DHT22;7658;51.456;7.622;2023-02-11T01:20:21;5.70;99.90
15115;DHT22;7658;51.456;7.622;2023-02-11T01:22:47;5.70;99.90
15115;DHT22;7658;51.456;7.622;2023-02-11T01:25:13;5.70;99.90
15115;DHT22;7658;51.456;7.622;2023-02-11T01:27:39;5.70;99.90
15115;DHT22;7658;51.456;7.622;2023-02-11T01:30:07;5.70;99.90
15115;DHT22;7658;51.456;7.622;2023-02-11T01:32:33;5.70;99.90
15115;DHT22;7658;51.456;7.622;2023-02-11T01:34:59;5.70;99.90
15115;DHT22;7658;51.456;7.622;2023-02-11T01:37:25;5.70;99.90
15115;DHT22;7658;51.456;7.622;2023-02-11T01:39:51;5.70;99.90
15115;DHT22;7658;51.456;7.622;2023-02-11T01:42:19;5.70;99.90
15115;DHT22;7658;51.456;7.622;2023-02-11T01:44:48;5.70;99.90
15115;DHT22;7658;51.456;7.622;2023-02-11T01:47:16;5.70;99.90
15115;DHT22;7658;51.456;7.622;2023-02-11T01:49:45;5.70;99.90
15115;DHT22;7658;51.456;7.622;2023-02-11T01:52:21;5.80;99.90
15115;DHT22;7658;51.456;7.622;2023-02-11T01:54:58;5.80;99.90
15115;DHT22;7658;51.456;7.622;2023-02-11T01:57:46;5.80;99.90
15115;DHT22;7658;51.456;7.622;2023-02-11T02:00:23;5.80;99.90
15115;DHT22;7658;51.456;7.622;2023-02-11T02:05:34;5.70;99.90
15115;DHT22;7658;51.456;7.622;2023-02-11T02:09:00;5.70;99.90
15115;DHT22;7658;51.456;7.622;2023-02-11T02:11:26;5.70;99.90
15115;DHT22;7658;51.456;7.622;2023-02-11T02:13:52;5.70;99.90
15115;DHT22;7658;51.456;7.622;2023-02-11T02:16:20;5.70;99.90
15115;DHT22;7658;51.456;7.622;2023-02-11T02:19:02;5.70;99.90
15115;DHT22;7658;51.456;7.622;2023-02-11T02:27:51;5.60;99.90
15115;DHT22;7658;51.456;7.622;2023-02-11T02:36:23;5.60;99.90
15115;DHT22;7658;51.456;7.622;2023-02-11T02:39:02;5.60;99.90
15115;DHT22;7658;51.456;7.622;2023-02-11T02:41:31;5.60;99.90
15115;DHT22;7658;51.456;7.622;2023-02-11T02:43:58;5.60;99.90
15115;DHT22;7658;51.456;7.622;2023-02-11T02:48:52;5.60;99.90
15115;DHT22;7658;51.456;7.622;2023-02-11T02:51:41;5.60;99.90
15115;DHT22;7658;51.456;7.622;2023-02-11T03:08:24;5.60;99.90
15115;DHT22;7658;51.456;7.622;2023-02-11T03:10:52;5.60;99.90
15115;DHT22;7658;51.456;7.622;2023-02-11T03:13:21;5.60;99.90
15115;DHT22;7658;51.456;7.622;2023-02-11T03:15:52;5.60;99.90
15115;DHT22;7658;51.456;7.622;2023-02-11T03:18:23;5.60;99.90
15115;DHT22;7658;51.456;7.622;2023-02-11T03:20:51;5.60;99.90
15115;DHT22;7658;51.456;7.622;2023-02-11T03:23:33;5.60;99.90
15115;DHT22;7658;51.456;7.622;2023-02-11T03:26:10;5.60;99.90
15115;DHT22;7658;51.456;7.622;2023-02-11T03:29:02;5.60;99.90
15115;DHT22;7658;51.456;7.622;2023-02-11T03:37:21;5.60;99.90
15115;DHT22;7658;51.456;7.622;2023-02-11T03:39:55;5.60;99.90
15115;DHT22;7658;51.456;7.622;2023-02-11T03:42:27;5.60;99.90
15115;DHT22;7658;51.456;7.622;2023-02-11T03:45:00;5.60;99.90
15115;DHT22;7658;51.456;7.622;2023-02-11T03:47:31;5.60;99.90
15115;DHT22;7658;51.456;7.622;2023-02-11T03:49:58;5.50;99.90
15115;DHT22;7658;51.456;7.622;2023-02-11T03:52:26;5.50;99.90
15115;DHT22;7658;51.456;7.622;2023-02-11T03:54:55;5.50;99.90
15115;DHT22;7658;51.456;7.622;2023-02-11T03:57:21;5.50;99.90
15115;DHT22;7658;51.456;7.622;2023-02-11T04:02:16;5.50;99.90
15115;DHT22;7658;51.456;7.622;2023-02-11T04:04:42;5.50;99.90
15115;DHT22;7658;51.456;7.622;2023-02-11T04:07:10;5.50;99.90
15115;DHT22;7658;51.456;7.622;2023-02-11T04:09:36;5.50;99.90
15115;DHT22;7658;51.456;7.622;2023-02-11T04:12:02;5.50;99.90
15115;DHT22;7658;51.456;7.622;2023-02-11T04:14:27;5.50;99.90
15115;DHT22;7658;51.456;7.622;2023-02-11T04:16:53;5.50;99.90
15115;DHT22;7658;51.456;7.622;2023-02-11T04:19:19;5.50;99.90
15115;DHT22;7658;51.456;7.622;2023-02-11T04:21:45;5.40;99.90
15115;DHT22;7658;51.456;7.622;2023-02-11T04:24:11;5.40;99.90
15115;DHT22;7658;51.456;7.622;2023-02-11T04:26:37;5.40;99.90
15115;DHT22;7658;51.456;7.622;2023-02-11T04:29:03;5.30;99.90
15115;DHT22;7658;51.456;7.622;2023-02-11T04:31:28;5.30;99.90
15115;DHT22;7658;51.456;7.622;2023-02-11T04:33:55;5.20;99.90
15115;DHT22;7658;51.456;7.622;2023-02-11T04:36:21;5.30;99.90
15115;DHT22;7658;51.456;7.622;2023-02-11T04:38:46;5.20;99.90
15115;DHT22;7658;51.456;7.622;2023-02-11T04:41:12;5.20;99.90
15115;DHT22;7658;51.456;7.622;2023-02-11T04:43:38;5.20;99.90
15115;DHT22;7658;51.456;7.622;2023-02-11T04:46:04;5.10;99.90
15115;DHT22;7658;51.456;7.622;2023-02-11T04:48:30;5.10;99.90
15115;DHT22;7658;51.456;7.622;2023-02-11T04:50:56;5.00;99.90
15115;DHT22;7658;51.456;7.622;2023-02-11T04:53:22;5.00;99.90
15115;DHT22;7658;51.456;7.622;2023-02-11T04:55:48;5.00;99.90
15115;DHT22;7658;51.456;7.622;2023-02-11T04:58:15;4.90;99.90
15115;DHT22;7658;51.456;7.622;2023-02-11T05:00:43;4.90;99.90
15115;DHT22;7658;51.456;7.622;2023-02-11T05:03:08;4.90;99.90
15115;DHT22;7658;51.456;7.622;2023-02-11T05:05:40;4.90;99.90
15115;DHT22;7658;51.456;7.622;2023-02-11T05:08:07;4.90;99.90
15115;DHT22;7658;51.456;7.622;2023-02-11T05:10:33;4.90;99.90
15115;DHT22;7658;51.456;7.622;2023-02-11T05:12:59;4.80;99.90
15115;DHT22;7658;51.456;7.622;2023-02-11T05:15:25;4.80;99.90
15115;DHT22;7658;51.456;7.622;2023-02-11T05:17:52;4.80;99.90
15115;DHT22;7658;51.456;7.622;2023-02-11T05:20:19;4.80;99.90
15115;DHT22;7658;51.456;7.622;2023-02-11T05:22:45;4.80;99.90
15115;DHT22;7658;51.456;7.622;2023-02-11T05:25:11;4.80;99.90
15115;DHT22;7658;51.456;7.622;2023-02-11T05:27:36;4.80;99.90
15115;DHT22;7658;51.456;7.622;2023-02-11T05:30:03;4.80;99.90
15115;DHT22;7658;51.456;7.622;2023-02-11T05:32:28;4.80;99.90
15115;DHT22;7658;51.456;7.622;2023-02-11T05:34:54;4.70;99.90
15115;DHT22;7658;51.456;7.622;2023-02-11T05:37:20;4.80;99.90
15115;DHT22;7658;51.456;7.622;2023-02-11T05:39:46;4.70;99.90
15115;DHT22;7658;51.456;7.622;2023-02-11T05:42:12;4.70;99.90
15115;DHT22;7658;51.456;7.622;2023-02-11T05:44:38;4.70;99.90
15115;DHT22;7658;51.456;7.622;2023-02-11T05:47:04;4.70;99.90
15115;DHT22;7658;51.456;7.622;2023-02-11T05:49:30;4.70;99.90
15115;DHT22;7658;51.456;7.622;2023-02-11T05:51:55;4.70;99.90
15115;DHT22;7658;51.456;7.622;2023-02-11T05:54:21;4.70;99.90
15115;DHT22;7658;51.456;7.622;2023-02-11T05:56:47;4.70;99.90
15115;DHT22;7658;51.456;7.622;2023-02-11T05:59:13;4.70;99.90
15115;DHT22;7658;51.456;7.622;2023-02-11T06:01:39;4.70;99.90
15115;DHT22;7658;51.456;7.622;2023-02-11T06:04:05;4.70;99.90
15115;DHT22;7658;51.456;7.622;2023-02-11T06:06:31;4.70;99.90
15115;DHT22;7658;51.456;7.622;2023-02-11T06:08:56;4.70;99.90
15115;DHT22;7658;51.456;7.622;2023-02-11T06:11:22;4.70;99.90
15115;DHT22;7658;51.456;7.622;2023-02-11T06:13:48;4.70;99.90
15115;DHT22;7658;51.456;7.622;2023-02-11T06:16:14;4.70;99.90
15115;DHT22;7658;51.456;7.622;2023-02-11T06:18:39;4.70;99.90
15115;DHT22;7658;51.456;7.622;2023-02-11T06:21:07;4.70;99.90
15115;DHT22;7658;51.456;7.622;2023-02-11T06:23:33;4.70;99.90
15115;DHT22;7658;51.456;7.622;2023-02-11T06:26:06;4.70;99.90
15115;DHT22;7658;51.456;7.622;2023-02-11T06:28:32;4.70;99.90
15115;DHT22;7658;51.456;7.622;2023-02-11T06:31:09;4.70;99.90
15115;DHT22;7658;51.456;7.622;2023-02-11T06:33:36;4.80;99.90
15115;DHT22;7658;51.456;7.622;2023-02-11T06:36:03;4.80;99.90
15115;DHT22;7658;51.456;7.622;2023-02-11T06:38:29;4.80;99.90
15115;DHT22;7658;51.456;7.622;2023-02-11T06:40:55;4.80;99.90
15115;DHT22;7658;51.456;7.622;2023-02-11T06:43:21;4.80;99.90
15115;DHT22;7658;51.456;7.622;2023-02-11T06:45:56;4.80;99.90
15115;DHT22;7658;51.456;7.622;2023-02-11T06:48:22;4.90;99.90
15115;DHT22;7658;51.456;7.622;2023-02-11T06:50:48;4.90;99.90
15115;DHT22;7658;51.456;7.622;2023-02-11T06:53:14;4.80;99.90
15115;DHT22;7658;51.456;7.622;2023-02-11T06:55:39;4.90;99.90
15115;DHT22;7658;51.456;7.622;2023-02-11T06:58:05;4.90;99.90
15115;DHT22;7658;51.456;7.622;2023-02-11T07:00:31;4.90;99.90
15115;DHT22;7658;51.456;7.622;2023-02-11T07:02:56;4.90;99.90
15115;DHT22;7658;51.456;7.622;2023-02-11T07:05:22;4.90;99.90
15115;DHT22;7658;51.456;7.622;2023-02-11T07:07:48;4.90;99.90
15115;DHT22;7658;51.456;7.622;2023-02-11T07:10:14;4.90;99.90
15115;DHT22;7658;51.456;7.622;2023-02-11T07:12:39;4.90;99.90
15115;DHT22;7658;51.456;7.622;2023-02-11T07:15:06;4.90;99.90
15115;DHT22;7658;51.456;7.622;2023-02-11T07:17:33;4.90;99.90
15115;DHT22;7658;51.456;7.622;2023-02-11T07:20:00;4.90;99.90
15115;DHT22;7658;51.456;7.622;2023-02-11T07:22:25;5.00;99.90
15115;DHT22;7658;51.456;7.622;2023-02-11T07:24:51;5.00;99.90
15115;DHT22;7658;51.456;7.622;2023-02-11T07:27:17;5.00;99.90
15115;DHT22;7658;51.456;7.622;2023-02-11T07:29:43;5.00;99.90
15115;DHT22;7658;51.456;7.622;2023-02-11T07:32:10;5.00;99.90
15115;DHT22;7658;51.456;7.622;2023-02-11T07:34:36;5.10;99.90
15115;DHT22;7658;51.456;7.622;2023-02-11T07:37:02;5.10;99.90
15115;DHT22;7658;51.456;7.622;2023-02-11T07:39:27;5.10;99.90
15115;DHT22;7658;51.456;7.622;2023-02-11T07:41:55;5.10;99.90
15115;DHT22;7658;51.456;7.622;2023-02-11T07:44:22;5.10;99.90
15115;DHT22;7658;51.456;7.622;2023-02-11T07:46:47;5.10;99.90
15115;DHT22;7658;51.456;7.622;2023-02-11T07:49:14;5.10;99.90
15115;DHT22;7658;51.456;7.622;2023-02-11T07:51:40;5.10;99.90
15115;DHT22;7658;51.456;7.622;2023-02-11T07:54:06;5.20;99.90
15115;DHT22;7658;51.456;7.622;2023-02-11T07:56:33;5.20;99.90
15115;DHT22;7658;51.456;7.622;2023-02-11T07:59:10;5.20;99.90
15115;DHT22;7658;51.456;7.622;2023-02-11T08:01:37;5.20;99.90
15115;DHT22;7658;51.456;7.622;2023-02-11T08:04:12;5.20;99.90
15115;DHT22;7658;51.456;7.622;2023-02-11T08:06:41;5.20;99.90
15115;DHT22;7658;51.456;7.622;2023-02-11T08:09:10;5.20;99.90
15115;DHT22;7658;51.456;7.622;2023-02-11T08:11:37;5.20;99.90
15115;DHT22;7658;51.456;7.622;2023-02-11T08:14:03;5.20;99.90
15115;DHT22;7658;51.456;7.622;2023-02-11T08:16:32;5.20;99.90
15115;DHT22;7658;51.456;7.622;2023-02-11T08:19:01;5.20;99.90
15115;DHT22;7658;51.456;7.622;2023-02-11T08:21:27;5.30;99.90
15115;DHT22;7658;51.456;7.622;2023-02-11T08:23:54;5.30;99.90
15115;DHT22;7658;51.456;7.622;2023-02-11T08:26:22;5.30;99.90
15115;DHT22;7658;51.456;7.622;2023-02-11T08:28:50;5.30;99.90
15115;DHT22;7658;51.456;7.622;2023-02-11T08:31:22;5.30;99.90
15115;DHT22;7658;51.456;7.622;2023-02-11T08:33:48;5.30;99.90
15115;DHT22;7658;51.456;7.622;2023-02-11T08:36:19;5.30;99.90
15115;DHT22;7658;51.456;7.622;2023-02-11T08:38:46;5.40;99.90
15115;DHT22;7658;51.456;7.622;2023-02-11T08:41:12;5.40;99.90
15115;DHT22;7658;51.456;7.622;2023-02-11T08:43:43;5.40;99.90
15115;DHT22;7658;51.456;7.622;2023-02-11T08:46:12;5.40;99.90
15115;DHT22;7658;51.456;7.622;2023-02-11T08:48:38;5.40;99.90
15115;DHT22;7658;51.456;7.622;2023-02-11T08:51:06;5.50;99.90
15115;DHT22;7658;51.456;7.622;2023-02-11T08:53:33;5.50;99.90
15115;DHT22;7658;51.456;7.622;2023-02-11T08:55:59;5.50;99.90
15115;DHT22;7658;51.456;7.622;2023-02-11T08:58:24;5.50;99.90
15115;DHT22;7658;51.456;7.622;2023-02-11T09:00:50;5.50;99.90
15115;DHT22;7658;51.456;7.622;2023-02-11T09:03:16;5.50;99.90
15115;DHT22;7658;51.456;7.622;2023-02-11T09:05:47;5.50;99.90
15115;DHT22;7658;51.456;7.622;2023-02-11T09:08:15;5.50;99.90
15115;DHT22;7658;51.456;7.622;2023-02-11T09:10:41;5.50;99.90
15115;DHT22;7658;51.456;7.622;2023-02-11T09:13:07;5.50;99.90
15115;DHT22;7658;51.456;7.622;2023-02-11T09:15:34;5.50;99.90
15115;DHT22;7658;51.456;7.622;2023-02-11T09:18:00;5.50;99.90
15115;DHT22;7658;51.456;7.622;2023-02-11T09:20:26;5.50;99.90
15115;DHT22;7658;51.456;7.622;2023-02-11T09:22:53;5.50;99.90
15115;DHT22;7658;51.456;7.622;2023-02-11T09:25:21;5.60;99.90
15115;DHT22;7658;51.456;7.622;2023-02-11T09:27:46;5.60;99.90
15115;DHT22;7658;51.456;7.622;2023-02-11T09:30:12;5.60;99.90
15115;DHT22;7658;51.456;7.622;2023-02-11T09:32:38;5.60;99.90
15115;DHT22;7658;51.456;7.622;2023-02-11T09:35:04;5.60;99.90
15115;DHT22;7658;51.456;7.622;2023-02-11T09:37:33;5.60;99.90
15115;DHT22;7658;51.456;7.622;2023-02-11T09:39:59;5.70;99.90
15115;DHT22;7658;51.456;7.622;2023-02-11T09:45:21;5.70;99.90
15115;DHT22;7658;51.456;7.622;2023-02-11T09:47:59;5.70;99.90
15115;DHT22;7658;51.456;7.622;2023-02-11T09:53:09;5.80;99.90
15115;DHT22;7658;51.456;7.622;2023-02-11T09:55:40;5.80;99.90
15115;DHT22;7658;51.456;7.622;2023-02-11T09:58:25;5.80;99.90
15115;DHT22;7658;51.456;7.622;2023-02-11T10:00:55;5.90;99.90
15115;DHT22;7658;51.456;7.622;2023-02-11T10:06:26;5.80;99.90
15115;DHT22;7658;51.456;7.622;2023-02-11T10:22:54;5.90;99.90
15115;DHT22;7658;51.456;7.622;2023-02-11T10:25:25;6.00;99.90
15115;DHT22;7658;51.456;7.622;2023-02-11T10:27:55;6.00;99.90
15115;DHT22;7658;51.456;7.622;2023-02-11T10:30:27;6.00;99.90
15115;DHT22;7658;51.456;7.622;2023-02-11T10:35:30;6.00;99.90
15115;DHT22;7658;51.456;7.622;2023-02-11T10:37:58;6.10;99.90
15115;DHT22;7658;51.456;7.622;2023-02-11T10:40:26;6.10;99.90
15115;DHT22;7658;51.456;7.622;2023-02-11T10:42:55;6.20;99.90
15115;DHT22;7658;51.456;7.622;2023-02-11T10:45:38;6.20;99.90
15115;DHT22;7658;51.456;7.622;2023-02-11T10:48:06;6.20;99.90
15115;DHT22;7658;51.456;7.622;2023-02-11T10:53:37;6.30;99.90
15115;DHT22;7658;51.456;7.622;2023-02-11T10:56:03;6.30;99.90
15115;DHT22;7658;51.456;7.622;2023-02-11T10:58:40;6.30;99.90
15115;DHT22;7658;51.456;7.622;2023-02-11T11:01:28;6.30;99.90
15115;DHT22;7658;51.456;7.622;2023-02-11T11:04:02;6.30;99.90
15115;DHT22;7658;51.456;7.622;2023-02-11T11:06:33;6.30;99.90
15115;DHT22;7658;51.456;7.622;2023-02-11T11:09:41;6.30;99.90
15115;DHT22;7658;51.456;7.622;2023-02-11T11:15:30;6.30;99.90
15115;DHT22;7658;51.456;7.622;2023-02-11T11:18:19;6.40;99.90
15115;DHT22;7658;51.456;7.622;2023-02-11T11:21:05;6.40;99.90
15115;DHT22;7658;51.456;7.622;2023-02-11T11:23:38;6.40;99.90
15115;DHT22;7658;51.456;7.622;2023-02-11T11:26:18;6.40;99.90
15115;DHT22;7658;51.456;7.622;2023-02-11T11:33:59;6.50;99.90
15115;DHT22;7658;51.456;7.622;2023-02-11T11:36:38;6.60;99.90
15115;DHT22;7658;51.456;7.622;2023-02-11T11:39:34;6.60;99.90
15115;DHT22;7658;51.456;7.622;2023-02-11T11:42:03;6.60;99.90
15115;DHT22;7658;51.456;7.622;2023-02-11T11:44:39;6.70;99.90
15115;DHT22;7658;51.456;7.622;2023-02-11T11:53:17;6.70;99.90
15115;DHT22;7658;51.456;7.622;2023-02-11T11:56:15;6.70;99.90
15115;DHT22;7658;51.456;7.622;2023-02-11T11:58:51;6.70;99.90
15115;DHT22;7658;51.456;7.622;2023-02-11T12:04:41;6.80;99.90
15115;DHT22;7658;51.456;7.622;2023-02-11T12:13:15;6.80;99.90
15115;DHT22;7658;51.456;7.622;2023-02-11T12:16:10;6.70;99.90
15115;DHT22;7658;51.456;7.622;2023-02-11T12:22:24;6.70;99.90
15115;DHT22;7658;51.456;7.622;2023-02-11T12:25:01;6.70;99.90
15115;DHT22;7658;51.456;7.622;2023-02-11T12:28:02;6.60;99.90
15115;DHT22;7658;51.456;7.622;2023-02-11T12:31:12;6.60;99.90
15115;DHT22;7658;51.456;7.622;2023-02-11T12:37:25;6.60;99.90
15115;DHT22;7658;51.456;7.622;2023-02-11T12:43:39;6.60;99.90
15115;DHT22;7658;51.456;7.622;2023-02-11T12:57:17;6.60;99.90
15115;DHT22;7658;51.456;7.622;2023-02-11T13:06:14;6.70;99.90
15115;DHT22;7658;51.456;7.622;2023-02-11T13:09:00;6.70;99.90
15115;DHT22;7658;51.456;7.622;2023-02-11T13:11:34;6.70;99.90
15115;DHT22;7658;51.456;7.622;2023-02-11T13:17:04;6.70;99.90
15115;DHT22;7658;51.456;7.622;2023-02-11T13:19:52;6.70;99.90
15115;DHT22;7658;51.456;7.622;2023-02-11T13:22:37;6.70;99.90
15115;DHT22;7658;51.456;7.622;2023-02-11T13:28:25;6.80;99.90
15115;DHT22;7658;51.456;7.622;2023-02-11T13:30:59;6.80;99.90
15115;DHT22;7658;51.456;7.622;2023-02-11T13:33:38;6.80;99.90
15115;DHT22;7658;51.456;7.622;2023-02-11T13:36:12;6.80;99.90
15115;DHT22;7658;51.456;7.622;2023-02-11T13:38:40;6.80;99.90
15115;DHT22;7658;51.456;7.622;2023-02-11T13:41:25;6.80;99.90
15115;DHT22;7658;51.456;7.622;2023-02-11T13:46:53;6.80;99.90
15115;DHT22;7658;51.456;7.622;2023-02-11T13:49:26;6.90;99.90
15115;DHT22;7658;51.456;7.622;2023-02-11T13:51:57;6.80;99.90
15115;DHT22;7658;51.456;7.622;2023-02-11T13:54:48;6.80;99.90
15115;DHT22;7658;51.456;7.622;2023-02-11T13:59:49;6.90;99.90
15115;DHT22;7658;51.456;7.622;2023-02-11T14:02:29;6.90;99.90
15115;DHT22;7658;51.456;7.622;2023-02-11T14:05:32;6.90;99.90
15115;DHT22;7658;51.456;7.622;2023-02-11T14:08:22;6.90;99.90
15115;DHT22;7658;51.456;7.622;2023-02-11T14:11:40;7.00;99.90
15115;DHT22;7658;51.456;7.622;2023-02-11T14:19:40;7.00;99.90
15115;DHT22;7658;51.456;7.622;2023-02-11T14:22:47;7.00;99.90
15115;DHT22;7658;51.456;7.622;2023-02-11T14:25:26;7.00;99.90
15115;DHT22;7658;51.456;7.622;2023-02-11T14:28:19;7.10;99.90
15115;DHT22;7658;51.456;7.622;2023-02-11T14:31:11;7.10;99.90
15115;DHT22;7658;51.456;7.622;2023-02-11T14:36:50;7.00;99.90
15115;DHT22;7658;51.456;7.622;2023-02-11T14:39:31;7.00;99.90
15115;DHT22;7658;51.456;7.622;2023-02-11T14:42:02;7.00;99.90
15115;DHT22;7658;51.456;7.622;2023-02-11T14:44:30;7.00;99.90
15115;DHT22;7658;51.456;7.622;2023-02-11T14:46:57;7.00;99.90
15115;DHT22;7658;51.456;7.622;2023-02-11T14:49:30;7.10;99.90
15115;DHT22;7658;51.456;7.622;2023-02-11T14:52:06;7.10;99.90
15115;DHT22;7658;51.456;7.622;2023-02-11T14:54:41;7.10;99.90
15115;DHT22;7658;51.456;7.622;2023-02-11T14:57:17;7.10;99.90
15115;DHT22;7658;51.456;7.622;2023-02-11T14:59:57;7.10;99.90
15115;DHT22;7658;51.456;7.622;2023-02-11T15:02:33;7.10;99.90
15115;DHT22;7658;51.456;7.622;2023-02-11T15:05:31;7.10;99.90
15115;DHT22;7658;51.456;7.622;2023-02-11T15:07:58;7.10;99.90
15115;DHT22;7658;51.456;7.622;2023-02-11T15:12:57;7.10;99.90
15115;DHT22;7658;51.456;7.622;2023-02-11T15:15:25;7.20;99.90
15115;DHT22;7658;51.456;7.622;2023-02-11T15:17:52;7.20;99.90
15115;DHT22;7658;51.456;7.622;2023-02-11T15:20:24;7.20;99.90
15115;DHT22;7658;51.456;7.622;2023-02-11T15:22:56;7.20;99.90
15115;DHT22;7658;51.456;7.622;2023-02-11T15:25:23;7.20;99.90
15115;DHT22;7658;51.456;7.622;2023-02-11T15:27:52;7.20;99.90
15115;DHT22;7658;51.456;7.622;2023-02-11T15:32:48;7.20;99.90
15115;DHT22;7658;51.456;7.622;2023-02-11T15:35:15;7.20;99.90
15115;DHT22;7658;51.456;7.622;2023-02-11T15:37:43;7.20;99.90
15115;DHT22;7658;51.456;7.622;2023-02-11T15:40:16;7.20;99.90
15115;DHT22;7658;51.456;7.622;2023-02-11T15:42:59;7.20;99.90
15115;DHT22;7658;51.456;7.622;2023-02-11T15:48:15;7.20;99.90
15115;DHT22;7658;51.456;7.622;2023-02-11T15:50:52;7.20;99.90
15115;DHT22;7658;51.456;7.622;2023-02-11T15:58:27;7.20;99.90
15115;DHT22;7658;51.456;7.622;2023-02-11T16:00:53;7.10;99.90
15115;DHT22;7658;51.456;7.622;2023-02-11T16:03:26;7.10;99.90
15115;DHT22;7658;51.456;7.622;2023-02-11T16:06:16;7.10;99.90
15115;DHT22;7658;51.456;7.622;2023-02-11T16:08:44;7.10;99.90
15115;DHT22;7658;51.456;7.622;2023-02-11T16:11:32;7.10;99.90
15115;DHT22;7658;51.456;7.622;2023-02-11T16:13:59;7.10;99.90
15115;DHT22;7658;51.456;7.622;2023-02-11T16:16:31;7.10;99.90
15115;DHT22;7658;51.456;7.622;2023-02-11T16:19:02;7.10;99.90
15115;DHT22;7658;51.456;7.622;2023-02-11T16:21:35;7.10;99.90
15115;DHT22;7658;51.456;7.622;2023-02-11T16:24:13;7.00;99.90
15115;DHT22;7658;51.456;7.622;2023-02-11T16:26:47;7.00;99.90
15115;DHT22;7658;51.456;7.622;2023-02-11T16:29:22;7.00;99.90
15115;DHT22;7658;51.456;7.622;2023-02-11T16:31:48;7.00;99.90
15115;DHT22;7658;51.456;7.622;2023-02-11T16:34:24;7.00;99.90
15115;DHT22;7658;51.456;7.622;2023-02-11T16:36:51;7.00;99.90
15115;DHT22;7658;51.456;7.622;2023-02-11T16:39:18;6.90;99.90
15115;DHT22;7658;51.456;7.622;2023-02-11T16:41:47;7.00;99.90
15115;DHT22;7658;51.456;7.622;2023-02-11T16:44:16;7.00;99.90
15115;DHT22;7658;51.456;7.622;2023-02-11T16:46:42;6.90;99.90
15115;DHT22;7658;51.456;7.622;2023-02-11T16:51:48;7.00;99.90
15115;DHT22;7658;51.456;7.622;2023-02-11T16:54:15;7.00;99.90
15115;DHT22;7658;51.456;7.622;2023-02-11T16:56:41;7.00;99.90
15115;DHT22;7658;51.456;7.622;2023-02-11T16:59:08;7.00;99.90
15115;DHT22;7658;51.456;7.622;2023-02-11T17:01:35;7.00;99.90
15115;DHT22;7658;51.456;7.622;2023-02-11T17:04:03;7.00;99.90
15115;DHT22;7658;51.456;7.622;2023-02-11T17:06:28;7.00;99.90
15115;DHT22;7658;51.456;7.622;2023-02-11T17:08:54;7.00;99.90
15115;DHT22;7658;51.456;7.622;2023-02-11T17:11:20;7.00;99.90
15115;DHT22;7658;51.456;7.622;2023-02-11T17:13:46;7.00;99.90
15115;DHT22;7658;51.456;7.622;2023-02-11T17:16:19;7.00;99.90
15115;DHT22;7658;51.456;7.622;2023-02-11T17:18:47;7.00;99.90
15115;DHT22;7658;51.456;7.622;2023-02-11T17:21:13;7.00;99.90
15115;DHT22;7658;51.456;7.622;2023-02-11T17:23:40;7.00;99.90
15115;DHT22;7658;51.456;7.622;2023-02-11T17:26:06;7.00;99.90
15115;DHT22;7658;51.456;7.622;2023-02-11T17:28:32;7.00;99.90
15115;DHT22;7658;51.456;7.622;2023-02-11T17:30:58;7.00;99.90
15115;DHT22;7658;51.456;7.622;2023-02-11T17:33:24;7.00;99.90
15115;DHT22;7658;51.456;7.622;2023-02-11T17:35:50;7.00;99.90
15115;DHT22;7658;51.456;7.622;2023-02-11T17:38:16;7.00;99.90
15115;DHT22;7658;51.456;7.622;2023-02-11T17:40:42;7.00;99.90
15115;DHT22;7658;51.456;7.622;2023-02-11T17:43:08;7.00;99.90
15115;DHT22;7658;51.456;7.622;2023-02-11T17:45:33;7.00;99.90
15115;DHT22;7658;51.456;7.622;2023-02-11T17:48:00;7.00;99.90
15115;DHT22;7658;51.456;7.622;2023-02-11T17:50:26;7.00;99.90
15115;DHT22;7658;51.456;7.622;2023-02-11T17:52:51;7.00;99.90
15115;DHT22;7658;51.456;7.622;2023-02-11T17:55:18;7.00;99.90
15115;DHT22;7658;51.456;7.622;2023-02-11T17:57:43;7.00;99.90
15115;DHT22;7658;51.456;7.622;2023-02-11T18:00:09;7.00;99.90
15115;DHT22;7658;51.456;7.622;2023-02-11T18:02:35;7.00;99.90
15115;DHT22;7658;51.456;7.622;2023-02-11T18:05:01;7.00;99.90
15115;DHT22;7658;51.456;7.622;2023-02-11T18:07:27;7.00;99.90
15115;DHT22;7658;51.456;7.622;2023-02-11T18:09:54;7.00;99.90
15115;DHT22;7658;51.456;7.622;2023-02-11T18:12:20;7.00;99.90
15115;DHT22;7658;51.456;7.622;2023-02-11T18:14:51;7.00;99.90
15115;DHT22;7658;51.456;7.622;2023-02-11T18:17:23;7.00;99.90
15115;DHT22;7658;51.456;7.622;2023-02-11T18:19:49;7.00;99.90
15115;DHT22;7658;51.456;7.622;2023-02-11T18:22:16;7.00;99.90
15115;DHT22;7658;51.456;7.622;2023-02-11T18:24:42;7.00;99.90
15115;DHT22;7658;51.456;7.622;2023-02-11T18:27:08;7.00;99.90
15115;DHT22;7658;51.456;7.622;2023-02-11T18:29:34;7.00;99.90
15115;DHT22;7658;51.456;7.622;2023-02-11T18:32:00;7.00;99.90
15115;DHT22;7658;51.456;7.622;2023-02-11T18:34:26;7.00;99.90
15115;DHT22;7658;51.456;7.622;2023-02-11T18:36:51;7.00;99.90
15115;DHT22;7658;51.456;7.622;2023-02-11T18:39:19;7.00;99.90
15115;DHT22;7658;51.456;7.622;2023-02-11T18:41:45;7.00;99.90
15115;DHT22;7658;51.456;7.622;2023-02-11T18:44:12;7.00;99.90
15115;DHT22;7658;51.456;7.622;2023-02-11T18:46:39;6.90;99.90
15115;DHT22;7658;51.456;7.622;2023-02-11T18:49:05;7.00;99.90
15115;DHT22;7658;51.456;7.622;2023-02-11T18:51:31;7.00;99.90
15115;DHT22;7658;51.456;7.622;2023-02-11T18:53:58;7.00;99.90
15115;DHT22;7658;51.456;7.622;2023-02-11T18:56:25;7.00;99.90
15115;DHT22;7658;51.456;7.622;2023-02-11T18:58:52;7.00;99.90